Time;durP1;ratioP1;P1;durP2;ratioP2;P2;SDS_P1;SDS_P2;PMS_P1;PMS_P2;Temp;Humidity;BMP_temperature;BMP_pressure;BME280_temperature;BME280_humidity;BME280_pressure;Samples;Min_cycle;Max_cycle;Signal;HPM_P1;HPM_P2
2023/12/09 00:02:05;;;;;;;;;;;;;;;;;;5035647;28;19975;-78
2023/12/09 00:04:31;;;;;;;;;;;;;;;;;;5043827;28;19925;-78
2023/12/09 00:06:57;;;;;;;;;;;;;;;;;;5035431;28;20016;-79
2023/12/09 00:09:24;;;;;;;;;;;;;;;;;;5035408;28;19928;-78
2023/12/09 00:11:50;;;;;;;;;;;;;;;;;;5035454;28;19979;-78
2023/12/09 00:14:16;;;;;;;;;;;;;;;;;;5042853;28;19929;-78
2023/12/09 00:16:42;;;;;;;;;;;;;;;;;;5035191;28;19925;-78
2023/12/09 00:19:09;;;;;;;;;;;;;;;;;;5035069;28;20401;-78
2023/12/09 00:21:35;;;;;;;;;;;;;;;;;;5051749;28;19971;-78
2023/12/09 00:24:01;;;;;;;;;;;;;;;;;;5054356;28;20336;-79
2023/12/09 00:26:28;;;;;;;;;;;;;;;;;;5035939;28;19929;-77
2023/12/09 00:28:54;;;;;;;;;;;;;;;;;;5035100;28;19932;-79
2023/12/09 00:31:20;;;;;;;;;;;;;;;;;;5035095;28;20389;-81
2023/12/09 00:33:46;;;;;;;;;;;;;;;;;;5036211;28;19925;-81
2023/12/09 00:36:13;;;;;;;;;;;;;;;;;;5046821;28;19979;-81
2023/12/09 00:38:39;;;;;;;;;;;;;;;;;;5054620;28;19928;-81
2023/12/09 00:41:06;;;;;;;;;;;;;;;;;;5054615;28;20297;-81
2023/12/09 00:43:32;;;;;;;;;;;;;;;;;;5054664;28;20016;-81
2023/12/09 00:45:58;;;;;;;;;;;;;;;;;;5045404;28;20343;-81
2023/12/09 00:48:24;;;;;;;;;;;;;;;;;;5034646;28;19995;-81
2023/12/09 00:50:51;;;;;;;;;;;;;;;;;;5034787;28;19929;-81
2023/12/09 00:53:17;;;;;;;;;;;;;;;;;;5040910;28;19929;-81
2023/12/09 00:55:43;;;;;;;;;;;;;;;;;;5050178;28;19986;-81
2023/12/09 00:58:09;;;;;;;;;;;;;;;;;;5034476;28;20350;-81
2023/12/09 01:00:36;;;;;;;;;;;;;;;;;;5045080;28;19928;-80
2023/12/09 01:03:02;;;;;;;;;;;;;;;;;;5054361;28;19928;-80
2023/12/09 01:05:28;;;;;;;;;;;;;;;;;;5053220;28;19928;-80
2023/12/09 01:07:54;;;;;;;;;;;;;;;;;;5035511;28;20333;-80
2023/12/09 01:10:21;;;;;;;;;;;;;;;;;;5038575;28;19925;-80
2023/12/09 01:12:47;;;;;;;;;;;;;;;;;;5054191;28;19979;-80
2023/12/09 01:15:14;;;;;;;;;;;;;;;;;;5053525;28;19929;-80
2023/12/09 01:17:40;;;;;;;;;;;;;;;;;;5040499;28;20447;-76
2023/12/09 01:20:07;;;;;;;;;;;;;;;;;;5034244;28;20352;-79
2023/12/09 01:22:33;;;;;;;;;;;;;;;;;;5034361;28;19933;-85
2023/12/09 01:25:00;;;;;;;;;;;;;;;;;;5034835;28;19979;-85
2023/12/09 01:27:26;;;;;;;;;;;;;;;;;;5045359;28;19932;-85
2023/12/09 01:29:52;;;;;;;;;;;;;;;;;;5054122;28;19925;-85
2023/12/09 01:32:18;;;;;;;;;;;;;;;;;;5054614;28;19928;-85
2023/12/09 01:34:45;;;;;;;;;;;;;;;;;;5054071;28;19971;-85
2023/12/09 01:37:11;;;;;;;;;;;;;;;;;;5050244;28;19925;-85
2023/12/09 01:39:37;;;;;;;;;;;;;;;;;;5033685;28;19933;-85
2023/12/09 01:42:04;;;;;;;;;;;;;;;;;;5034091;28;19925;-84
2023/12/09 01:44:30;;;;;;;;;;;;;;;;;;5041650;28;20337;-80
2023/12/09 01:46:56;;;;;;;;;;;;;;;;;;5052910;28;19987;-80
2023/12/09 01:49:22;;;;;;;;;;;;;;;;;;5035414;28;19925;-79
2023/12/09 01:51:49;;;;;;;;;;;;;;;;;;5033235;28;19959;-79
2023/12/09 01:54:15;;;;;;;;;;;;;;;;;;5033477;28;20378;-79
2023/12/09 01:56:41;;;;;;;;;;;;;;;;;;5033705;28;19925;-79
2023/12/09 01:59:07;;;;;;;;;;;;;;;;;;5040523;28;19976;-80
2023/12/09 02:01:34;;;;;;;;;;;;;;;;;;5041834;28;19924;-80
2023/12/09 02:04:00;;;;;;;;;;;;;;;;;;5053395;28;19928;-82
2023/12/09 02:06:26;;;;;;;;;;;;;;;;;;5053369;28;19929;-80
2023/12/09 02:08:53;;;;;;;;;;;;;;;;;;5049000;28;19990;-80
2023/12/09 02:11:19;;;;;;;;;;;;;;;;;;5053015;28;19931;-80
2023/12/09 02:13:45;;;;;;;;;;;;;;;;;;5053216;28;20388;-80
2023/12/09 02:16:12;;;;;;;;;;;;;;;;;;5053129;28;19924;-81
2023/12/09 02:18:38;;;;;;;;;;;;;;;;;;5049904;28;19971;-79
2023/12/09 02:21:05;;;;;;;;;;;;;;;;;;5032879;28;19979;-79
2023/12/09 02:23:31;;;;;;;;;;;;;;;;;;5032993;28;19925;-78
2023/12/09 02:25:57;;;;;;;;;;;;;;;;;;5033063;28;20352;-79
2023/12/09 02:28:23;;;;;;;;;;;;;;;;;;5052174;28;19983;-79
2023/12/09 02:30:50;;;;;;;;;;;;;;;;;;5035660;28;19987;-79
2023/12/09 02:33:16;;;;;;;;;;;;;;;;;;5032945;28;19941;-79
2023/12/09 02:35:42;;;;;;;;;;;;;;;;;;5032825;28;19929;-79
2023/12/09 02:38:08;;;;;;;;;;;;;;;;;;5032692;28;20537;-79
2023/12/09 02:40:35;;;;;;;;;;;;;;;;;;5040066;28;20251;-79
2023/12/09 02:43:01;;;;;;;;;;;;;;;;;;5032794;28;19929;-79
2023/12/09 02:45:27;;;;;;;;;;;;;;;;;;5046046;28;19929;-79
2023/12/09 02:47:53;;;;;;;;;;;;;;;;;;5052640;28;19925;-79
2023/12/09 02:50:20;;;;;;;;;;;;;;;;;;5045304;28;20440;-79
2023/12/09 02:52:46;;;;;;;;;;;;;;;;;;5032359;28;19933;-78
2023/12/09 02:55:12;;;;;;;;;;;;;;;;;;5032537;28;19925;-78
2023/12/09 02:57:38;;;;;;;;;;;;;;;;;;5032509;28;19933;-77
2023/12/09 03:00:05;;;;;;;;;;;;;;;;;;5039771;28;19925;-78
2023/12/09 03:02:32;;;;;;;;;;;;;;;;;;5043137;28;20400;-81
2023/12/09 03:04:58;;;;;;;;;;;;;;;;;;5051428;28;19933;-82
2023/12/09 03:07:24;;;;;;;;;;;;;;;;;;5052287;28;19925;-81
2023/12/09 03:09:51;;;;;;;;;;;;;;;;;;5051429;28;19978;-81
2023/12/09 03:12:17;;;;;;;;;;;;;;;;;;5035704;28;20451;-81
2023/12/09 03:14:43;;;;;;;;;;;;;;;;;;5032500;28;19929;-81
2023/12/09 03:17:09;;;;;;;;;;;;;;;;;;5032399;28;19974;-81
2023/12/09 03:19:36;;;;;;;;;;;;;;;;;;5048188;28;19925;-78
2023/12/09 03:22:02;;;;;;;;;;;;;;;;;;5040096;28;19925;-78
2023/12/09 03:24:29;;;;;;;;;;;;;;;;;;5032409;28;19931;-78
2023/12/09 03:26:55;;;;;;;;;;;;;;;;;;5032088;28;20378;-78
2023/12/09 03:29:21;;;;;;;;;;;;;;;;;;5032398;28;19925;-78
2023/12/09 03:31:47;;;;;;;;;;;;;;;;;;5039832;28;19959;-78
2023/12/09 03:34:14;;;;;;;;;;;;;;;;;;5032153;28;19925;-79
2023/12/09 03:36:40;;;;;;;;;;;;;;;;;;5044970;28;19933;-78
2023/12/09 03:39:07;;;;;;;;;;;;;;;;;;5051652;28;20401;-79
2023/12/09 03:41:33;;;;;;;;;;;;;;;;;;5050499;28;19929;-78
2023/12/09 03:43:59;;;;;;;;;;;;;;;;;;5031820;28;19979;-78
2023/12/09 03:46:26;;;;;;;;;;;;;;;;;;5032008;28;19979;-78
2023/12/09 03:48:52;;;;;;;;;;;;;;;;;;5031807;28;19929;-78
2023/12/09 03:51:18;;;;;;;;;;;;;;;;;;5039915;28;20439;-78
2023/12/09 03:53:44;;;;;;;;;;;;;;;;;;5035819;28;20003;-78
2023/12/09 03:56:11;;;;;;;;;;;;;;;;;;5032004;28;19972;-78
2023/12/09 03:58:37;;;;;;;;;;;;;;;;;;5031711;28;19972;-81
2023/12/09 04:01:04;;;;;;;;;;;;;;;;;;5031852;28;19925;-81
2023/12/09 04:03:30;;;;;;;;;;;;;;;;;;5039202;28;19925;-81
2023/12/09 04:05:57;;;;;;;;;;;;;;;;;;5033844;28;19974;-80
2023/12/09 04:08:23;;;;;;;;;;;;;;;;;;5051959;28;19929;-81
2023/12/09 04:10:49;;;;;;;;;;;;;;;;;;5050005;28;19979;-80
2023/12/09 04:13:15;;;;;;;;;;;;;;;;;;5045530;28;20353;-81
2023/12/09 04:15:42;;;;;;;;;;;;;;;;;;5033018;28;19951;-80
2023/12/09 04:18:08;;;;;;;;;;;;;;;;;;5035040;28;19935;-80
2023/12/09 04:20:34;;;;;;;;;;;;;;;;;;5035275;28;19980;-79
2023/12/09 04:23:01;;;;;;;;;;;;;;;;;;5042870;28;19924;-79
2023/12/09 04:25:27;;;;;;;;;;;;;;;;;;5035189;28;20393;-81
2023/12/09 04:27:54;;;;;;;;;;;;;;;;;;5044741;28;19929;-80
2023/12/09 04:30:21;;;;;;;;;;;;;;;;;;5055147;28;19925;-81
2023/12/09 04:32:48;;;;;;;;;;;;;;;;;;5054212;28;19935;-80
2023/12/09 04:35:14;;;;;;;;;;;;;;;;;;5039705;28;20420;-81
2023/12/09 04:37:40;;;;;;;;;;;;;;;;;;5035059;28;19925;-80
2023/12/09 04:40:09;;;;;;;;;;;;;;;;;;5035374;28;20142;-80
2023/12/09 04:42:35;;;;;;;;;;;;;;;;;;5036841;28;20337;-81
2023/12/09 04:45:01;;;;;;;;;;;;;;;;;;5043989;28;19929;-80
2023/12/09 04:47:28;;;;;;;;;;;;;;;;;;5034669;28;19964;-80
2023/12/09 04:49:54;;;;;;;;;;;;;;;;;;5035196;28;19983;-81
2023/12/09 04:52:20;;;;;;;;;;;;;;;;;;5034788;28;19925;-81
2023/12/09 04:54:47;;;;;;;;;;;;;;;;;;5042206;28;19929;-81
2023/12/09 04:57:13;;;;;;;;;;;;;;;;;;5034772;28;19929;-81
2023/12/09 04:59:39;;;;;;;;;;;;;;;;;;5034750;28;19987;-81
2023/12/09 05:02:05;;;;;;;;;;;;;;;;;;5052106;28;19925;-81
2023/12/09 05:04:32;;;;;;;;;;;;;;;;;;5053724;28;20385;-80
2023/12/09 05:06:58;;;;;;;;;;;;;;;;;;5034541;28;19929;-80
2023/12/09 05:09:25;;;;;;;;;;;;;;;;;;5034309;28;19979;-80
2023/12/09 05:11:51;;;;;;;;;;;;;;;;;;5043728;28;20377;-80
2023/12/09 05:14:17;;;;;;;;;;;;;;;;;;5053495;28;19942;-81
2023/12/09 05:16:44;;;;;;;;;;;;;;;;;;5039594;28;20000;-78
2023/12/09 05:19:11;;;;;;;;;;;;;;;;;;5033917;28;19925;-78
2023/12/09 05:21:37;;;;;;;;;;;;;;;;;;5034395;28;19930;-78
2023/12/09 05:24:04;;;;;;;;;;;;;;;;;;5034422;28;19929;-78
2023/12/09 05:26:30;;;;;;;;;;;;;;;;;;5040792;28;20026;-77
2023/12/09 05:28:56;;;;;;;;;;;;;;;;;;5035739;28;20351;-78
2023/12/09 05:31:22;;;;;;;;;;;;;;;;;;5053828;28;19955;-78
2023/12/09 05:33:49;;;;;;;;;;;;;;;;;;5053744;28;19982;-80
2023/12/09 05:36:15;;;;;;;;;;;;;;;;;;5048898;28;19987;-81
2023/12/09 05:38:41;;;;;;;;;;;;;;;;;;5033488;28;19933;-80
2023/12/09 05:41:07;;;;;;;;;;;;;;;;;;5034087;28;19935;-80
2023/12/09 05:43:34;;;;;;;;;;;;;;;;;;5033648;28;19932;-80
2023/12/09 05:46:00;;;;;;;;;;;;;;;;;;5038928;28;20369;-81
2023/12/09 05:48:26;;;;;;;;;;;;;;;;;;5034287;28;19929;-81
2023/12/09 05:50:53;;;;;;;;;;;;;;;;;;5035649;28;19983;-80
2023/12/09 05:53:19;;;;;;;;;;;;;;;;;;5042918;28;20270;-80
2023/12/09 05:55:45;;;;;;;;;;;;;;;;;;5041556;28;19994;-81
2023/12/09 05:58:13;;;;;;;;;;;;;;;;;;5046993;28;19925;-80
2023/12/09 06:00:39;;;;;;;;;;;;;;;;;;5053092;28;19932;-80
2023/12/09 06:03:06;;;;;;;;;;;;;;;;;;5046205;28;20401;-78
2023/12/09 06:05:32;;;;;;;;;;;;;;;;;;5051166;28;19925;-78
2023/12/09 06:07:58;;;;;;;;;;;;;;;;;;5050825;28;19928;-79
2023/12/09 06:10:24;;;;;;;;;;;;;;;;;;5052714;28;20004;-78
2023/12/09 06:12:51;;;;;;;;;;;;;;;;;;5046225;28;19980;-78
2023/12/09 06:15:17;;;;;;;;;;;;;;;;;;5042675;28;19928;-79
2023/12/09 06:17:44;;;;;;;;;;;;;;;;;;5044360;28;20008;-79
2023/12/09 06:20:10;;;;;;;;;;;;;;;;;;5043289;28;19929;-79
2023/12/09 06:22:36;;;;;;;;;;;;;;;;;;5045810;28;19925;-78
2023/12/09 06:25:02;;;;;;;;;;;;;;;;;;5037422;28;19929;-81
2023/12/09 06:27:29;;;;;;;;;;;;;;;;;;5038298;28;19979;-80
2023/12/09 06:29:55;;;;;;;;;;;;;;;;;;5052323;28;19978;-80
2023/12/09 06:32:21;;;;;;;;;;;;;;;;;;5047015;28;19924;-79
2023/12/09 06:34:47;;;;;;;;;;;;;;;;;;5047099;28;20373;-81
2023/12/09 06:37:14;;;;;;;;;;;;;;;;;;5051669;28;19947;-80
2023/12/09 06:39:40;;;;;;;;;;;;;;;;;;5038927;28;19979;-81
2023/12/09 06:42:06;;;;;;;;;;;;;;;;;;5052465;28;19929;-80
2023/12/09 06:44:32;;;;;;;;;;;;;;;;;;5052397;28;20011;-81
2023/12/09 06:49:42;;;;;;;;;;;;;;;;;;5041547;28;19920;-80
2023/12/09 06:52:08;;;;;;;;;;;;;;;;;;5035932;28;19936;-79
2023/12/09 06:54:35;;;;;;;;;;;;;;;;;;5033554;28;19929;-79
2023/12/09 06:57:01;;;;;;;;;;;;;;;;;;5039164;28;19925;-80
2023/12/09 06:59:27;;;;;;;;;;;;;;;;;;5039538;28;19979;-80
2023/12/09 07:01:54;;;;;;;;;;;;;;;;;;5032209;28;20279;-80
2023/12/09 07:04:20;;;;;;;;;;;;;;;;;;5032421;28;19925;-80
2023/12/09 07:06:46;;;;;;;;;;;;;;;;;;5032710;28;19925;-80
2023/12/09 07:09:13;;;;;;;;;;;;;;;;;;5039527;28;19978;-80
2023/12/09 07:11:39;;;;;;;;;;;;;;;;;;5032133;28;19925;-80
2023/12/09 07:14:06;;;;;;;;;;;;;;;;;;5032294;28;19929;-80
2023/12/09 07:16:32;;;;;;;;;;;;;;;;;;5048965;28;19925;-79
2023/12/09 07:18:59;;;;;;;;;;;;;;;;;;5037736;28;22862;-78
2023/12/09 07:21:26;;;;;;;;;;;;;;;;;;5038367;28;19969;-79
2023/12/09 07:23:52;;;;;;;;;;;;;;;;;;5033470;28;19929;-79
2023/12/09 07:26:18;;;;;;;;;;;;;;;;;;5033760;28;19933;-79
2023/12/09 07:28:44;;;;;;;;;;;;;;;;;;5032364;28;19979;-79
2023/12/09 07:31:11;;;;;;;;;;;;;;;;;;5039754;28;20389;-79
2023/12/09 07:33:38;;;;;;;;;;;;;;;;;;5044531;28;20011;-80
2023/12/09 07:36:04;;;;;;;;;;;;;;;;;;5032492;28;20021;-79
2023/12/09 07:38:30;;;;;;;;;;;;;;;;;;5032329;28;19956;-80
2023/12/09 07:40:57;;;;;;;;;;;;;;;;;;5042396;28;19954;-79
2023/12/09 07:43:23;;;;;;;;;;;;;;;;;;5044490;28;20355;-79
2023/12/09 07:45:49;;;;;;;;;;;;;;;;;;5052033;28;19935;-80
2023/12/09 07:48:16;;;;;;;;;;;;;;;;;;5052462;28;19929;-79
2023/12/09 07:50:42;;;;;;;;;;;;;;;;;;5052270;28;20015;-77
2023/12/09 07:53:08;;;;;;;;;;;;;;;;;;5036773;28;19940;-79
2023/12/09 07:55:34;;;;;;;;;;;;;;;;;;5049832;28;19956;-80
2023/12/09 07:58:01;;;;;;;;;;;;;;;;;;5051020;28;19979;-79
2023/12/09 08:00:27;;;;;;;;;;;;;;;;;;5054763;28;19932;-79
2023/12/09 08:02:54;;;;;;;;;;;;;;;;;;5049853;28;20027;-80
2023/12/09 08:05:21;;;;;;;;;;;;;;;;;;5044890;28;19925;-79
2023/12/09 08:07:47;;;;;;;;;;;;;;;;;;5055570;28;20021;-80
2023/12/09 08:10:14;;;;;;;;;;;;;;;;;;5055364;28;19925;-79
2023/12/09 08:12:40;;;;;;;;;;;;;;;;;;5052020;28;19925;-79
2023/12/09 08:15:06;;;;;;;;;;;;;;;;;;5051147;28;19929;-80
2023/12/09 08:17:33;;;;;;;;;;;;;;;;;;5054926;28;20416;-79
2023/12/09 08:19:59;;;;;;;;;;;;;;;;;;5054992;28;19928;-80
2023/12/09 08:22:25;;;;;;;;;;;;;;;;;;5052224;28;19932;-80
2023/12/09 08:24:51;;;;;;;;;;;;;;;;;;5054696;28;20011;-80
2023/12/09 08:27:18;;;;;;;;;;;;;;;;;;5055027;28;20453;-79
2023/12/09 08:29:45;;;;;;;;;;;;;;;;;;5055227;28;19924;-80
2023/12/09 08:32:11;;;;;;;;;;;;;;;;;;5053912;28;19940;-80
2023/12/09 08:34:37;;;;;;;;;;;;;;;;;;5048332;28;19970;-80
2023/12/09 08:37:03;;;;;;;;;;;;;;;;;;5039839;28;20349;-80
2023/12/09 08:39:30;;;;;;;;;;;;;;;;;;5042609;28;19932;-80
2023/12/09 08:41:56;;;;;;;;;;;;;;;;;;5054150;28;19963;-79
2023/12/09 08:44:23;;;;;;;;;;;;;;;;;;5051677;28;19929;-80
2023/12/09 08:46:51;;;;;;;;;;;;;;;;;;5054485;28;19984;-80
2023/12/09 08:49:17;;;;;;;;;;;;;;;;;;5053125;28;19955;-80
2023/12/09 08:51:43;;;;;;;;;;;;;;;;;;5054551;28;19982;-80
2023/12/09 08:54:09;;;;;;;;;;;;;;;;;;5053146;28;19928;-81
2023/12/09 08:56:36;;;;;;;;;;;;;;;;;;5053367;28;20377;-80
2023/12/09 08:59:02;;;;;;;;;;;;;;;;;;5054432;28;19994;-80
2023/12/09 09:01:28;;;;;;;;;;;;;;;;;;5053998;28;19929;-80
2023/12/09 09:03:54;;;;;;;;;;;;;;;;;;5053212;28;20382;-80
2023/12/09 09:06:21;;;;;;;;;;;;;;;;;;5053876;28;19928;-80
2023/12/09 09:08:47;;;;;;;;;;;;;;;;;;5054097;28;19932;-83
2023/12/09 09:11:13;;;;;;;;;;;;;;;;;;5054115;28;19929;-79
2023/12/09 09:13:39;;;;;;;;;;;;;;;;;;5043064;28;19925;-82
2023/12/09 09:16:06;;;;;;;;;;;;;;;;;;5054136;28;19925;-82
2023/12/09 09:18:33;;;;;;;;;;;;;;;;;;5053570;28;20442;-82
2023/12/09 09:20:59;;;;;;;;;;;;;;;;;;5054027;28;19928;-83
2023/12/09 09:23:25;;;;;;;;;;;;;;;;;;5053198;28;19925;-82
2023/12/09 09:25:52;;;;;;;;;;;;;;;;;;5047319;28;19925;-81
2023/12/09 09:28:18;;;;;;;;;;;;;;;;;;5053632;28;19929;-82
2023/12/09 09:30:45;;;;;;;;;;;;;;;;;;5050876;28;19971;-82
2023/12/09 09:33:15;;;;;;;;;;;;;;;;;;5050164;28;19994;-82
2023/12/09 09:35:46;;;;;;;;;;;;;;;;;;5049504;28;20015;-82
2023/12/09 09:46:20;;;;;;;;;;;;;;;;;;5045731;28;19976;-80
2023/12/09 09:48:46;;;;;;;;;;;;;;;;;;5044019;28;20026;-82
2023/12/09 09:51:18;;;;;;;;;;;;;;;;;;5050995;28;19928;-79
2023/12/09 09:53:44;;;;;;;;;;;;;;;;;;5050541;28;19929;-82
2023/12/09 09:56:11;;;;;;;;;;;;;;;;;;5049938;28;20624;-80
2023/12/09 09:58:37;;;;;;;;;;;;;;;;;;5050738;28;19932;-83
2023/12/09 10:01:04;;;;;;;;;;;;;;;;;;5050838;28;19924;-82
2023/12/09 10:03:30;;;;;;;;;;;;;;;;;;5049454;28;19925;-80
2023/12/09 10:05:57;;;;;;;;;;;;;;;;;;5049808;28;19951;-82
2023/12/09 10:08:24;;;;;;;;;;;;;;;;;;5030650;28;19932;-81
2023/12/09 10:10:50;;;;;;;;;;;;;;;;;;5030794;28;19929;-84
2023/12/09 10:13:16;;;;;;;;;;;;;;;;;;5029707;28;19925;-83
2023/12/09 10:15:42;;;;;;;;;;;;;;;;;;5032630;28;20894;-81
2023/12/09 10:18:08;;;;;;;;;;;;;;;;;;5036598;28;19933;-81
2023/12/09 10:20:35;;;;;;;;;;;;;;;;;;5045232;28;19929;-81
2023/12/09 10:23:01;;;;;;;;;;;;;;;;;;5043458;28;20047;-80
2023/12/09 10:25:27;;;;;;;;;;;;;;;;;;5030886;28;19932;-80
2023/12/09 10:27:54;;;;;;;;;;;;;;;;;;5037990;28;19963;-80
2023/12/09 10:30:20;;;;;;;;;;;;;;;;;;5030300;28;19929;-82
2023/12/09 10:32:46;;;;;;;;;;;;;;;;;;5030663;28;19925;-79
2023/12/09 10:35:12;;;;;;;;;;;;;;;;;;5030859;28;19929;-82
2023/12/09 10:37:39;;;;;;;;;;;;;;;;;;5038004;28;20588;-82
2023/12/09 10:40:06;;;;;;;;;;;;;;;;;;5033366;28;20573;-82
2023/12/09 10:42:32;;;;;;;;;;;;;;;;;;5038567;28;20358;-82
2023/12/09 10:44:58;;;;;;;;;;;;;;;;;;5030292;28;19925;-81
2023/12/09 10:47:25;;;;;;;;;;;;;;;;;;5037267;28;19990;-82
2023/12/09 10:49:51;;;;;;;;;;;;;;;;;;5031033;28;19925;-80
2023/12/09 10:52:17;;;;;;;;;;;;;;;;;;5030316;28;19924;-81
2023/12/09 10:54:44;;;;;;;;;;;;;;;;;;5029996;28;20047;-80
2023/12/09 10:57:10;;;;;;;;;;;;;;;;;;5030866;28;19929;-81
2023/12/09 10:59:36;;;;;;;;;;;;;;;;;;5041269;28;20922;-81
2023/12/09 11:02:03;;;;;;;;;;;;;;;;;;5042748;28;20042;-82
2023/12/09 11:04:29;;;;;;;;;;;;;;;;;;5030215;28;19929;-81
2023/12/09 11:06:55;;;;;;;;;;;;;;;;;;5030226;28;19925;-81
2023/12/09 11:09:21;;;;;;;;;;;;;;;;;;5037316;28;19959;-81
2023/12/09 11:11:48;;;;;;;;;;;;;;;;;;5030009;28;19949;-80
2023/12/09 11:14:14;;;;;;;;;;;;;;;;;;5028817;28;19936;-81
2023/12/09 11:16:41;;;;;;;;;;;;;;;;;;5031889;28;19929;-81
2023/12/09 11:19:08;;;;;;;;;;;;;;;;;;5039592;28;19933;-80
2023/12/09 11:21:34;;;;;;;;;;;;;;;;;;5046318;28;20059;-80
2023/12/09 11:24:00;;;;;;;;;;;;;;;;;;5039241;28;20451;-80
2023/12/09 11:26:27;;;;;;;;;;;;;;;;;;5035291;28;19925;-81
2023/12/09 11:28:53;;;;;;;;;;;;;;;;;;5041977;28;19928;-81
2023/12/09 11:31:19;;;;;;;;;;;;;;;;;;5037570;28;19945;-80
2023/12/09 11:33:45;;;;;;;;;;;;;;;;;;5036005;28;19976;-81
2023/12/09 11:36:12;;;;;;;;;;;;;;;;;;5035821;28;20444;-80
2023/12/09 11:38:38;;;;;;;;;;;;;;;;;;5052696;28;19929;-80
2023/12/09 11:41:06;;;;;;;;;;;;;;;;;;5055778;28;19983;-81
2023/12/09 11:43:32;;;;;;;;;;;;;;;;;;5054942;28;19925;-81
2023/12/09 11:45:58;;;;;;;;;;;;;;;;;;5053791;28;19936;-81
2023/12/09 11:48:24;;;;;;;;;;;;;;;;;;5055764;28;20385;-80
2023/12/09 11:50:51;;;;;;;;;;;;;;;;;;5054506;28;20347;-80
2023/12/09 11:53:17;;;;;;;;;;;;;;;;;;5055135;28;19929;-80
2023/12/09 11:55:44;;;;;;;;;;;;;;;;;;5052649;28;19925;-80
2023/12/09 11:58:10;;;;;;;;;;;;;;;;;;5055426;28;20304;-81
2023/12/09 12:00:36;;;;;;;;;;;;;;;;;;5047574;28;19925;-81
2023/12/09 12:03:03;;;;;;;;;;;;;;;;;;5045917;28;19928;-81
2023/12/09 12:05:31;;;;;;;;;;;;;;;;;;5055434;28;19928;-82
2023/12/09 12:07:57;;;;;;;;;;;;;;;;;;5055069;28;19925;-82
2023/12/09 12:10:24;;;;;;;;;;;;;;;;;;5054607;28;20723;-80
2023/12/09 12:12:50;;;;;;;;;;;;;;;;;;5053732;28;19924;-81
2023/12/09 12:15:16;;;;;;;;;;;;;;;;;;5055243;28;19925;-80
2023/12/09 12:17:42;;;;;;;;;;;;;;;;;;5054950;28;19924;-79
2023/12/09 12:20:09;;;;;;;;;;;;;;;;;;5044431;28;19933;-79
2023/12/09 12:22:35;;;;;;;;;;;;;;;;;;5042265;28;19932;-82
2023/12/09 12:25:01;;;;;;;;;;;;;;;;;;5035186;28;19936;-80
2023/12/09 12:27:28;;;;;;;;;;;;;;;;;;5035330;28;19925;-81
2023/12/09 12:29:54;;;;;;;;;;;;;;;;;;5035398;28;19929;-80
2023/12/09 12:32:20;;;;;;;;;;;;;;;;;;5042393;28;19933;-80
2023/12/09 12:34:47;;;;;;;;;;;;;;;;;;5035513;28;19932;-79
2023/12/09 12:37:13;;;;;;;;;;;;;;;;;;5036689;28;19932;-77
2023/12/09 12:39:39;;;;;;;;;;;;;;;;;;5034932;28;19929;-78
2023/12/09 12:42:06;;;;;;;;;;;;;;;;;;5042020;28;19932;-77
2023/12/09 12:44:32;;;;;;;;;;;;;;;;;;5034273;28;19929;-80
2023/12/09 12:46:59;;;;;;;;;;;;;;;;;;5034787;28;20439;-80
2023/12/09 12:49:26;;;;;;;;;;;;;;;;;;5034641;28;19932;-80
2023/12/09 12:51:53;;;;;;;;;;;;;;;;;;5039089;28;20366;-80
2023/12/09 12:54:19;;;;;;;;;;;;;;;;;;5048135;28;19929;-79
2023/12/09 12:56:46;;;;;;;;;;;;;;;;;;5034644;28;20294;-80
2023/12/09 12:59:12;;;;;;;;;;;;;;;;;;5034597;28;19936;-80
2023/12/09 13:01:38;;;;;;;;;;;;;;;;;;5034502;28;19926;-79
2023/12/09 13:04:04;;;;;;;;;;;;;;;;;;5041911;28;20345;-80
2023/12/09 13:06:31;;;;;;;;;;;;;;;;;;5034575;28;19926;-80
2023/12/09 13:08:57;;;;;;;;;;;;;;;;;;5034278;28;20024;-80
2023/12/09 13:11:23;;;;;;;;;;;;;;;;;;5048160;28;19929;-80
2023/12/09 13:13:50;;;;;;;;;;;;;;;;;;5042941;28;19952;-81
2023/12/09 13:16:16;;;;;;;;;;;;;;;;;;5043401;28;19928;-81
2023/12/09 13:18:43;;;;;;;;;;;;;;;;;;5043757;28;19925;-83
2023/12/09 13:21:10;;;;;;;;;;;;;;;;;;5050975;28;19955;-81
2023/12/09 13:23:36;;;;;;;;;;;;;;;;;;5052809;28;19924;-81
2023/12/09 13:26:03;;;;;;;;;;;;;;;;;;5054127;28;19928;-83
2023/12/09 13:28:29;;;;;;;;;;;;;;;;;;5051535;28;19928;-81
2023/12/09 13:30:55;;;;;;;;;;;;;;;;;;5043160;28;19925;-82
2023/12/09 13:33:22;;;;;;;;;;;;;;;;;;5051569;28;20414;-82
2023/12/09 13:35:49;;;;;;;;;;;;;;;;;;5053610;28;19929;-82
2023/12/09 13:38:15;;;;;;;;;;;;;;;;;;5053408;28;20369;-83
2023/12/09 13:40:41;;;;;;;;;;;;;;;;;;5053574;28;19928;-81
2023/12/09 13:43:07;;;;;;;;;;;;;;;;;;5052676;28;19925;-80
2023/12/09 13:45:35;;;;;;;;;;;;;;;;;;5043653;28;20685;-81
2023/12/09 13:48:02;;;;;;;;;;;;;;;;;;5052692;28;19968;-82
2023/12/09 13:50:28;;;;;;;;;;;;;;;;;;5054039;28;20460;-81
2023/12/09 13:52:54;;;;;;;;;;;;;;;;;;5053089;28;19929;-81
2023/12/09 13:55:23;;;;;;;;;;;;;;;;;;5047617;28;19932;-82
2023/12/09 13:57:50;;;;;;;;;;;;;;;;;;5052856;28;19951;-82
2023/12/09 14:00:16;;;;;;;;;;;;;;;;;;5053138;28;19924;-79
2023/12/09 14:02:43;;;;;;;;;;;;;;;;;;5050900;28;19932;-81
2023/12/09 14:05:10;;;;;;;;;;;;;;;;;;5051183;28;19933;-81
2023/12/09 14:07:36;;;;;;;;;;;;;;;;;;5044936;28;19925;-81
2023/12/09 14:10:04;;;;;;;;;;;;;;;;;;5053438;28;19928;-79
2023/12/09 14:12:31;;;;;;;;;;;;;;;;;;5053040;28;19933;-78
2023/12/09 14:14:57;;;;;;;;;;;;;;;;;;5052351;28;19925;-74
2023/12/09 14:17:23;;;;;;;;;;;;;;;;;;5052521;28;20385;-76
2023/12/09 14:23:04;;;;;;;17.55;16.75;;;;;;;;;;5115288;27;20395;-88
2023/12/09 14:25:31;;;;;;;11.70;10.95;;;;;;;;;;5112288;28;20046;-89
2023/12/09 14:27:58;;;;;;;11.65;11.10;;;;;;;;;;5112245;28;20040;-90
2023/12/09 14:30:24;;;;;;;17.85;17.08;;;;;;;;;;5111985;28;20455;-88
2023/12/09 14:32:51;;;;;;;18.48;17.65;;;;;;;;;;5111468;28;20055;-89
2023/12/09 14:35:17;;;;;;;17.38;16.58;;;;;;;;;;5110543;28;20047;-88
2023/12/09 14:37:47;;;;;;;19.63;18.70;;;;;;;;;;5104097;28;20050;-88
2023/12/09 14:40:15;;;;;;;22.65;21.35;;;;;;;;;;5111376;28;20052;-88
2023/12/09 14:42:42;;;;;;;41.28;39.55;;;;;;;;;;5111115;28;20440;-88
2023/12/09 14:45:10;;;;;;;134.70;130.18;;;;;;;;;;5111171;28;20048;-88
2023/12/09 14:47:36;;;;;;;212.23;205.77;;;;;;;;;;5104907;28;20044;-88
2023/12/09 14:50:03;;;;;;;46.90;44.92;;;;;;;;;;5111050;28;20062;-88
2023/12/09 14:52:30;;;;;;;202.35;196.10;;;;;;;;;;5111247;28;20052;-89
2023/12/09 14:54:56;;;;;;;219.13;212.77;;;;;;;;;;5120609;28;20043;-88
2023/12/09 14:57:24;;;;;;;420.25;409.90;;;;;;;;;;5101097;28;20044;-89
2023/12/09 14:59:51;;;;;;;31.10;29.63;;;;;;;;;;5094115;28;20056;-87
2023/12/09 15:02:17;;;;;;;44.90;42.90;;;;;;;;;;5094887;28;20044;-88
2023/12/09 15:04:44;;;;;;;58.85;56.55;;;;;;;;;;5092043;28;20059;-81
2023/12/09 15:07:11;;;;;;;111.07;106.85;;;;;;;;;;5095549;28;20040;-82
2023/12/09 15:09:38;;;;;;;121.03;116.78;;;;;;;;;;5089825;28;20500;-82
2023/12/09 15:12:06;;;;;;;287.13;279.13;;;;;;;;;;5088797;28;20044;-86
2023/12/09 15:14:33;;;;;;;367.83;358.63;;;;;;;;;;5102408;28;20044;-85
2023/12/09 15:17:00;;;;;;;556.85;543.72;;;;;;;;;;5108135;28;20044;-86
2023/12/09 15:19:27;;;;;;;373.85;364.30;;;;;;;;;;5093855;28;20044;-86
2023/12/09 15:21:53;;;;;;;372.90;363.38;;;;;;;;;;5088011;28;20056;-85
2023/12/09 15:24:21;;;;;;;428.20;417.83;;;;;;;;;;5088450;28;20059;-85
2023/12/09 15:26:49;;;;;;;143.13;138.35;;;;;;;;;;5089058;28;20485;-86
2023/12/09 15:29:16;;;;;;;43.55;41.78;;;;;;;;;;5098829;28;20450;-85
2023/12/09 15:31:44;;;;;;;123.03;118.80;;;;;;;;;;5107946;28;20052;-86
2023/12/09 15:34:11;;;;;;;133.70;129.20;;;;;;;;;;5096188;28;20117;-86
2023/12/09 15:36:37;;;;;;;111.18;107.28;;;;;;;;;;5094957;28;20051;-86
2023/12/09 15:39:04;;;;;;;143.10;138.30;;;;;;;;;;5089305;28;20120;-86
2023/12/09 15:41:30;;;;;;;138.65;134.15;;;;;;;;;;5074414;28;20090;-86
2023/12/09 15:43:57;;;;;;;148.23;142.98;;;;;;;;;;5074573;28;20397;-86
2023/12/09 15:46:26;;;;;;;124.78;120.43;;;;;;;;;;5074739;28;20045;-86
2023/12/09 15:48:54;;;;;;;113.53;109.45;;;;;;;;;;5080358;28;20040;-80
2023/12/09 15:51:21;;;;;;;128.70;124.10;;;;;;;;;;5089703;28;20070;-80
2023/12/09 15:53:47;;;;;;;124.45;120.15;;;;;;;;;;5089971;28;20040;-80
2023/12/09 15:56:14;;;;;;;120.80;116.57;;;;;;;;;;5094195;28;20051;-81
2023/12/09 15:58:40;;;;;;;121.60;117.28;;;;;;;;;;5093449;28;20052;-80
2023/12/09 16:01:07;;;;;;;82.03;79.22;;;;;;;;;;5078382;28;20052;-80
2023/12/09 16:03:33;;;;;;;81.82;78.88;;;;;;;;;;5073750;28;20044;-80
2023/12/09 16:06:01;;;;;;;93.93;90.75;;;;;;;;;;5073782;28;20063;-81
2023/12/09 16:08:28;;;;;;;74.05;71.18;;;;;;;;;;5073671;28;20059;-81
2023/12/09 16:10:55;;;;;;;77.63;74.65;;;;;;;;;;5088328;28;20051;-80
2023/12/09 16:13:23;;;;;;;100.15;96.28;;;;;;;;;;5089984;28;20055;-81
2023/12/09 16:15:50;;;;;;;81.22;78.10;;;;;;;;;;5094349;28;20058;-81
2023/12/09 16:18:16;;;;;;;71.55;69.00;;;;;;;;;;5094016;28;20515;-80
2023/12/09 16:20:43;;;;;;;69.65;66.70;;;;;;;;;;5087138;28;20057;-80
2023/12/09 16:23:11;;;;;;;61.35;58.80;;;;;;;;;;5073389;28;20052;-80
2023/12/09 16:25:37;;;;;;;69.10;66.65;;;;;;;;;;5073614;28;20045;-80
2023/12/09 16:28:05;;;;;;;61.33;58.88;;;;;;;;;;5073567;28;20813;-80
2023/12/09 16:30:32;;;;;;;56.15;53.92;;;;;;;;;;5081090;28;20075;-80